createdAt,value
2022-12-14T00:04:04.849Z,234.56604
2022-12-14T00:09:06.593Z,233.20188
2022-12-14T00:14:08.211Z,221.47748
2022-12-14T00:19:09.838Z,233.20188
2022-12-14T00:24:11.469Z,220.23318
2022-12-14T00:29:13.098Z,233.20188
2022-12-14T00:34:14.752Z,220.23318
2022-12-14T00:39:16.647Z,226.56881
2022-12-14T00:44:18.260Z,225.27854
2022-12-14T00:49:19.878Z,226.56881
2022-12-14T00:54:21.495Z,225.27854
2022-12-14T00:59:27.249Z,216.56637
2022-12-14T01:04:29.072Z,231.85047
2022-12-14T01:09:30.713Z,219
2022-12-14T01:14:32.322Z,209.51724
2022-12-14T01:19:33.962Z,219
2022-12-14T01:24:35.666Z,215.36564
2022-12-14T01:29:37.260Z,210.66667
2022-12-14T01:34:38.944Z,226.56881
2022-12-14T01:39:40.620Z,243.02913
2022-12-14T01:44:42.520Z,237.33333
2022-12-14T01:49:44.270Z,247.44828
2022-12-14T01:54:49.169Z,248.9505
2022-12-14T01:59:50.873Z,237.33333
2022-12-14T02:04:52.546Z,264.83333
2022-12-14T02:09:54.184Z,244.4878
2022-12-14T02:14:55.812Z,247.44828
2022-12-14T02:19:57.453Z,241.58454
2022-12-14T02:24:59.065Z,238.73684
2022-12-14T02:30:00.721Z,244.4878
2022-12-14T02:35:03.413Z,247.44828
2022-12-14T02:40:05.020Z,258.28571
2022-12-14T02:45:06.624Z,252
2022-12-14T02:50:08.348Z,247.44828
2022-12-14T02:55:09.944Z,235.94313
2022-12-14T03:00:11.532Z,237.33333
2022-12-14T03:05:13.316Z,238.73684
2022-12-14T03:10:15.186Z,237.33333
2022-12-14T03:15:16.799Z,244.4878
2022-12-14T03:20:18.488Z,247.44828
2022-12-14T03:25:20.116Z,268.21053
2022-12-14T03:30:57.750Z,250.46766
2022-12-14T03:36:00.470Z,243.02913
2022-12-14T03:41:02.059Z,243.02913
2022-12-14T03:46:04.202Z,247.44828
2022-12-14T03:51:05.896Z,245.96078
2022-12-14T03:56:07.505Z,244.4878
2022-12-14T04:01:09.215Z,245.96078
2022-12-14T04:06:11.048Z,256.69036
2022-12-14T04:11:12.847Z,271.65957
2022-12-14T04:16:14.522Z,259.89744
2022-12-14T04:21:16.203Z,269.92593
2022-12-14T04:26:17.808Z,247.44828
2022-12-14T04:31:19.501Z,252
2022-12-14T04:36:21.149Z,248.9505
2022-12-14T04:41:22.754Z,245.96078
2022-12-14T04:46:24.458Z,245.96078
2022-12-14T04:51:26.052Z,247.44828
2022-12-14T04:56:27.738Z,252
2022-12-14T05:01:29.739Z,264.83333
2022-12-14T05:06:31.449Z,268.21053
2022-12-14T05:11:53.339Z,278.78261
2022-12-14T05:16:56.103Z,278.78261
2022-12-14T05:21:57.751Z,280.61202
2022-12-14T05:26:59.358Z,271.65957
2022-12-14T05:32:01.013Z,268.21053
2022-12-14T05:37:02.766Z,261.52577
2022-12-14T05:42:04.401Z,259.89744
2022-12-14T05:47:06.017Z,264.83333
2022-12-14T05:52:07.639Z,264.83333
2022-12-14T05:57:09.283Z,259.89744
2022-12-14T06:02:11.127Z,252
2022-12-14T06:07:12.872Z,258.28571
2022-12-14T06:12:14.483Z,268.21053
2022-12-14T06:17:16.077Z,269.92593
2022-12-14T06:22:17.774Z,268.21053
2022-12-14T06:27:19.409Z,268.21053
2022-12-14T06:32:21.043Z,275.1828
2022-12-14T06:37:22.705Z,269.92593
2022-12-14T06:42:24.538Z,271.65957
2022-12-14T06:47:26.211Z,266.51309
2022-12-14T06:52:27.860Z,271.65957
2022-12-14T06:57:29.479Z,276.97297
2022-12-14T07:02:31.383Z,276.97297
2022-12-14T07:07:33.225Z,280.61202
2022-12-14T07:12:34.929Z,284.33149
2022-12-14T07:17:36.582Z,278.78261
2022-12-14T07:22:38.207Z,284.33149
2022-12-14T07:27:39.814Z,275.1828
2022-12-14T07:32:41.429Z,278.78261
2022-12-14T07:37:43.016Z,273.41176
2022-12-14T07:42:50.728Z,282.46154
2022-12-14T07:47:52.342Z,292.0226
2022-12-14T07:52:53.948Z,282.46154
2022-12-14T07:57:55.573Z,280.61202
2022-12-14T08:02:57.201Z,282.46154
2022-12-14T08:07:58.797Z,280.61202
2022-12-14T08:13:00.394Z,280.61202
2022-12-14T08:18:02.017Z,278.78261
2022-12-14T08:23:03.611Z,280.61202
2022-12-14T08:28:05.242Z,280.61202
2022-12-14T08:33:06.881Z,280.61202
2022-12-14T08:38:08.637Z,284.33149
2022-12-14T08:43:10.244Z,280.61202
2022-12-14T08:48:11.870Z,275.1828
2022-12-14T08:53:13.506Z,268.21053
2022-12-14T08:58:15.183Z,268.21053
2022-12-14T09:03:16.902Z,266.51309
2022-12-14T09:08:18.570Z,273.41176
2022-12-14T09:13:20.292Z,275.1828
2022-12-14T09:18:21.930Z,278.78261
2022-12-14T09:23:23.518Z,276.97297
2022-12-14T09:28:25.153Z,284.33149
2022-12-14T09:33:27.351Z,280.61202
2022-12-14T09:38:29.245Z,271.65957
2022-12-14T09:43:36.755Z,271.65957
2022-12-14T09:48:39.179Z,275.1828
2022-12-14T09:53:40.830Z,273.41176
2022-12-14T09:58:42.436Z,271.65957
2022-12-14T10:03:44.250Z,271.65957
2022-12-14T10:08:51.000Z,276.97297
2022-12-14T10:13:56.251Z,276.97297
2022-12-14T10:18:59.913Z,282.46154
2022-12-14T10:24:02.613Z,280.61202
2022-12-14T10:29:04.220Z,282.46154
2022-12-14T10:34:11.928Z,280.61202
2022-12-14T10:39:13.885Z,282.46154
2022-12-14T10:44:15.497Z,288.13408
2022-12-14T10:49:17.174Z,284.33149
2022-12-14T10:54:18.819Z,280.61202
2022-12-14T10:59:20.438Z,284.33149
2022-12-14T11:04:22.045Z,284.33149
2022-12-14T11:09:23.733Z,284.33149
2022-12-14T11:14:25.349Z,280.61202
2022-12-14T11:19:27.106Z,278.78261
2022-12-14T11:24:29.007Z,286.22222
2022-12-14T11:29:30.618Z,280.61202
2022-12-14T11:34:32.259Z,280.61202
2022-12-14T11:39:33.928Z,278.78261
2022-12-14T11:44:35.566Z,286.22222
2022-12-14T11:49:37.131Z,282.46154
2022-12-14T11:54:38.884Z,278.78261
2022-12-14T11:59:40.476Z,273.41176
2022-12-14T12:04:42.049Z,275.1828
2022-12-14T12:09:43.703Z,273.41176
2022-12-14T12:14:45.323Z,269.92593
2022-12-14T12:19:47.833Z,266.51309
2022-12-14T12:25:16.321Z,266.51309
2022-12-14T12:30:26.332Z,280.61202
2022-12-14T12:35:27.942Z,280.61202
2022-12-14T12:40:29.520Z,282.46154
2022-12-14T12:45:31.164Z,275.1828
2022-12-14T12:50:32.888Z,273.41176
2022-12-14T12:55:34.537Z,284.33149
2022-12-14T13:00:36.151Z,259.89744
2022-12-14T13:05:47.188Z,280.61202
2022-12-14T13:15:57.644Z,306.35294
2022-12-14T13:20:59.258Z,302.13953
2022-12-14T13:26:00.872Z,304.23392
2022-12-14T13:31:02.573Z,304.23392
2022-12-14T13:36:04.224Z,294
2022-12-14T13:41:05.791Z,324.24691
2022-12-14T13:46:07.455Z,326.6087
2022-12-14T13:51:09.201Z,329
2022-12-14T13:56:10.824Z,341.41935
2022-12-14T14:01:12.594Z,315.08434
2022-12-14T14:06:14.298Z,298.02299
2022-12-14T14:16:37.388Z,302.13953
2022-12-14T14:21:52.505Z,302.13953
2022-12-14T14:27:15.554Z,284.33149
2022-12-14T14:32:17.164Z,278.78261
2022-12-14T14:37:18.768Z,292.0226
2022-12-14T14:42:20.438Z,288.13408
2022-12-14T14:47:22.094Z,298.02299
2022-12-14T14:52:23.759Z,317.33333
2022-12-14T14:57:25.373Z,321.91411
2022-12-14T15:02:27.007Z,338.87179
2022-12-14T15:07:28.597Z,368.82759
2022-12-14T15:12:30.232Z,354.66667
2022-12-14T15:17:31.836Z,354.66667
2022-12-14T15:22:33.445Z,338.87179
2022-12-14T15:27:35.060Z,354.66667
2022-12-14T15:32:36.668Z,338.87179
2022-12-14T15:37:38.404Z,344
2022-12-14T15:42:39.991Z,349.26316
2022-12-14T15:47:41.759Z,363.04762
2022-12-14T15:52:43.396Z,333.87342
2022-12-14T15:57:45.060Z,346.61438
2022-12-14T16:02:48.168Z,338.87179
2022-12-14T16:07:49.871Z,336.35669
2022-12-14T16:12:51.464Z,363.04762
2022-12-14T16:18:00.716Z,346.61438
2022-12-14T16:23:03.852Z,338.87179
2022-12-14T16:28:05.451Z,344
2022-12-14T16:33:07.047Z,365.91781
2022-12-14T16:38:08.651Z,387.16547
2022-12-14T16:43:10.313Z,349.26316
2022-12-14T16:48:12.029Z,354.66667
2022-12-14T16:53:13.804Z,349.26316
2022-12-14T16:58:15.445Z,365.91781
2022-12-14T17:03:17.212Z,319.60976
2022-12-14T17:08:18.838Z,331.42138
2022-12-14T17:13:20.473Z,331.42138
2022-12-14T17:18:22.073Z,333.87342
2022-12-14T17:23:23.674Z,331.42138
2022-12-14T17:28:25.275Z,363.04762
2022-12-14T17:33:27.293Z,360.21622
2022-12-14T17:38:29.171Z,365.91781
2022-12-14T17:43:31.103Z,341.41935
2022-12-14T17:48:33.069Z,344
2022-12-14T17:53:34.691Z,326.6087
2022-12-14T17:58:36.316Z,336.35669
2022-12-14T18:03:38.071Z,360.21622
2022-12-14T18:08:39.740Z,371.77778
2022-12-14T18:13:41.352Z,374.76923
2022-12-14T18:18:42.982Z,360.21622
2022-12-14T18:23:45.906Z,360.21622
2022-12-14T18:28:47.903Z,368.82759
2022-12-14T18:33:50.839Z,354.66667
2022-12-14T18:38:53.353Z,363.04762
2022-12-14T18:43:55.457Z,341.41935
2022-12-14T18:48:58.370Z,393.63504
2022-12-14T18:54:00.993Z,403.70149
2022-12-14T18:59:02.913Z,384
2022-12-14T19:04:05.518Z,360.21622
2022-12-14T19:09:08.735Z,363.04762
2022-12-14T19:14:10.827Z,371.77778
2022-12-14T19:19:13.544Z,390.37681
2022-12-14T19:24:15.326Z,393.63504
2022-12-14T19:29:18.083Z,390.37681
2022-12-14T19:34:20.861Z,377.80282
2022-12-14T19:39:22.840Z,374.76923
2022-12-14T19:44:24.982Z,374.76923
2022-12-14T19:49:26.987Z,360.21622
2022-12-14T19:54:29.209Z,329
2022-12-14T19:59:31.097Z,349.26316
2022-12-14T20:04:33.200Z,341.41935
2022-12-14T20:09:35.224Z,308.49704
2022-12-14T20:14:37.044Z,344
2022-12-14T20:19:39.463Z,349.26316
2022-12-14T20:24:41.411Z,324.24691
2022-12-14T20:29:43.084Z,304.23392
2022-12-14T20:34:44.792Z,333.87342
2022-12-14T20:39:46.496Z,333.87342
2022-12-14T20:44:49.361Z,317.33333
2022-12-14T20:49:51.279Z,333.87342
2022-12-14T20:54:52.948Z,421.51938
2022-12-14T20:59:54.547Z,407.15789
2022-12-14T21:04:56.193Z,390.37681
2022-12-14T21:09:57.792Z,360.21622
2022-12-14T21:14:59.430Z,410.66667
2022-12-14T21:20:01.490Z,393.63504
2022-12-14T21:25:05.267Z,393.63504
2022-12-14T21:30:07.576Z,403.70149
2022-12-14T21:35:09.135Z,429.03937
2022-12-14T21:40:10.723Z,414.22901
2022-12-14T21:45:12.324Z,429.03937
2022-12-14T21:50:13.962Z,414.22901
2022-12-14T21:55:15.557Z,444.81301
2022-12-14T22:00:17.209Z,444.81301
2022-12-14T22:05:18.818Z,390.37681
2022-12-14T22:10:24.906Z,275.1828
2022-12-14T22:15:26.956Z,275.1828
2022-12-14T22:20:28.660Z,266.51309
2022-12-14T22:25:30.493Z,290.06742
2022-12-14T22:30:32.176Z,231.85047
2022-12-14T22:35:33.842Z,280.61202
2022-12-14T22:40:35.449Z,255.11111
2022-12-14T22:45:37.086Z,258.28571
2022-12-14T22:50:38.802Z,241.58454
2022-12-14T22:55:40.414Z,247.44828
2022-12-14T23:00:42.188Z,247.44828
2022-12-14T23:05:43.831Z,221.47748
2022-12-14T23:10:45.457Z,227.87097
2022-12-14T23:15:51.581Z,206.12766
2022-12-14T23:20:53.204Z,231.85047
2022-12-14T23:25:54.778Z,250.46766
2022-12-14T23:30:56.531Z,247.44828
2022-12-14T23:35:58.366Z,278.78261
2022-12-14T23:41:00.047Z,255.11111
2022-12-14T23:46:01.798Z,268.21053
2022-12-14T23:51:03.443Z,243.02913
2022-12-14T23:56:05.059Z,275.1828
